sensor_id;sensor_type;location;lat;lon;timestamp;temperature;humidity
25652;DHT22;13508;50.734;4.232;2023-10-08T00:01:23;16.40;99.90
25652;DHT22;13508;50.734;4.232;2023-10-08T00:04:29;16.50;99.90
25652;DHT22;13508;50.734;4.232;2023-10-08T00:07:32;16.50;99.90
25652;DHT22;13508;50.734;4.232;2023-10-08T00:10:39;16.30;99.90
25652;DHT22;13508;50.734;4.232;2023-10-08T00:13:46;16.30;99.90
25652;DHT22;13508;50.734;4.232;2023-10-08T00:16:51;16.40;99.90
25652;DHT22;13508;50.734;4.232;2023-10-08T00:19:55;16.10;99.90
25652;DHT22;13508;50.734;4.232;2023-10-08T00:23:03;16.30;99.90
25652;DHT22;13508;50.734;4.232;2023-10-08T00:26:11;16.30;99.90
25652;DHT22;13508;50.734;4.232;2023-10-08T00:29:15;16.40;99.90
25652;DHT22;13508;50.734;4.232;2023-10-08T00:32:18;16.40;99.90
25652;DHT22;13508;50.734;4.232;2023-10-08T00:35:22;16.50;99.90
25652;DHT22;13508;50.734;4.232;2023-10-08T00:38:25;16.40;99.90
25652;DHT22;13508;50.734;4.232;2023-10-08T00:41:35;16.30;99.90
25652;DHT22;13508;50.734;4.232;2023-10-08T00:44:41;16.30;99.90
25652;DHT22;13508;50.734;4.232;2023-10-08T00:47:51;16.10;99.90
25652;DHT22;13508;50.734;4.232;2023-10-08T00:50:58;16.10;99.90
25652;DHT22;13508;50.734;4.232;2023-10-08T00:54:17;16.00;99.90
25652;DHT22;13508;50.734;4.232;2023-10-08T00:57:26;16.00;99.90
25652;DHT22;13508;50.734;4.232;2023-10-08T01:00:32;16.10;99.90
25652;DHT22;13508;50.734;4.232;2023-10-08T01:03:37;16.00;99.90
25652;DHT22;13508;50.734;4.232;2023-10-08T01:06:47;16.00;99.90
25652;DHT22;13508;50.734;4.232;2023-10-08T01:09:57;16.20;99.90
25652;DHT22;13508;50.734;4.232;2023-10-08T01:13:03;16.00;99.90
25652;DHT22;13508;50.734;4.232;2023-10-08T01:16:08;16.00;99.90
25652;DHT22;13508;50.734;4.232;2023-10-08T01:19:18;16.00;99.90
25652;DHT22;13508;50.734;4.232;2023-10-08T01:22:23;16.10;99.90
25652;DHT22;13508;50.734;4.232;2023-10-08T01:25:33;16.10;99.90
25652;DHT22;13508;50.734;4.232;2023-10-08T01:28:37;16.10;99.90
25652;DHT22;13508;50.734;4.232;2023-10-08T01:31:41;16.20;99.90
25652;DHT22;13508;50.734;4.232;2023-10-08T01:34:50;16.00;99.90
25652;DHT22;13508;50.734;4.232;2023-10-08T01:37:56;15.70;99.90
25652;DHT22;13508;50.734;4.232;2023-10-08T01:41:00;15.50;99.90
25652;DHT22;13508;50.734;4.232;2023-10-08T01:44:08;15.50;99.90
25652;DHT22;13508;50.734;4.232;2023-10-08T01:47:13;15.60;99.90
25652;DHT22;13508;50.734;4.232;2023-10-08T01:50:18;15.40;99.90
25652;DHT22;13508;50.734;4.232;2023-10-08T01:53:24;15.40;99.90
25652;DHT22;13508;50.734;4.232;2023-10-08T01:56:29;15.40;99.90
25652;DHT22;13508;50.734;4.232;2023-10-08T01:59:33;15.20;99.90
25652;DHT22;13508;50.734;4.232;2023-10-08T02:02:37;15.20;99.90
25652;DHT22;13508;50.734;4.232;2023-10-08T02:05:44;15.30;99.90
25652;DHT22;13508;50.734;4.232;2023-10-08T02:08:48;15.40;99.90
25652;DHT22;13508;50.734;4.232;2023-10-08T02:11:55;15.50;99.90
25652;DHT22;13508;50.734;4.232;2023-10-08T02:14:59;15.40;99.90
25652;DHT22;13508;50.734;4.232;2023-10-08T02:18:08;15.40;99.90
25652;DHT22;13508;50.734;4.232;2023-10-08T02:21:12;15.40;99.90
25652;DHT22;13508;50.734;4.232;2023-10-08T02:24:16;15.50;99.90
25652;DHT22;13508;50.734;4.232;2023-10-08T02:27:20;15.50;99.90
25652;DHT22;13508;50.734;4.232;2023-10-08T02:30:23;15.50;99.90
25652;DHT22;13508;50.734;4.232;2023-10-08T02:33:29;15.40;99.90
25652;DHT22;13508;50.734;4.232;2023-10-08T02:36:38;15.40;99.90
25652;DHT22;13508;50.734;4.232;2023-10-08T02:39:43;15.40;99.90
25652;DHT22;13508;50.734;4.232;2023-10-08T02:42:51;15.40;99.90
25652;DHT22;13508;50.734;4.232;2023-10-08T02:45:54;15.40;99.90
25652;DHT22;13508;50.734;4.232;2023-10-08T02:48:58;15.40;99.90
25652;DHT22;13508;50.734;4.232;2023-10-08T02:52:02;15.50;99.90
25652;DHT22;13508;50.734;4.232;2023-10-08T02:55:07;15.50;99.90
25652;DHT22;13508;50.734;4.232;2023-10-08T02:58:23;15.50;99.90
25652;DHT22;13508;50.734;4.232;2023-10-08T03:01:28;15.20;99.90
25652;DHT22;13508;50.734;4.232;2023-10-08T03:04:36;15.30;99.90
25652;DHT22;13508;50.734;4.232;2023-10-08T03:07:40;15.20;99.90
25652;DHT22;13508;50.734;4.232;2023-10-08T03:10:44;15.20;99.90
25652;DHT22;13508;50.734;4.232;2023-10-08T03:13:50;15.20;99.90
25652;DHT22;13508;50.734;4.232;2023-10-08T03:16:56;15.20;99.90
25652;DHT22;13508;50.734;4.232;2023-10-08T03:20:11;15.20;99.90
25652;DHT22;13508;50.734;4.232;2023-10-08T03:23:40;15.20;99.90
25652;DHT22;13508;50.734;4.232;2023-10-08T03:26:50;15.40;99.90
25652;DHT22;13508;50.734;4.232;2023-10-08T03:29:58;15.40;99.90
25652;DHT22;13508;50.734;4.232;2023-10-08T03:33:09;15.30;99.90
25652;DHT22;13508;50.734;4.232;2023-10-08T03:36:13;15.40;99.90
25652;DHT22;13508;50.734;4.232;2023-10-08T03:39:17;15.40;99.90
25652;DHT22;13508;50.734;4.232;2023-10-08T03:42:24;15.30;99.90
25652;DHT22;13508;50.734;4.232;2023-10-08T03:45:28;15.50;99.90
25652;DHT22;13508;50.734;4.232;2023-10-08T03:48:50;15.40;99.90
25652;DHT22;13508;50.734;4.232;2023-10-08T03:51:59;15.30;99.90
25652;DHT22;13508;50.734;4.232;2023-10-08T03:55:05;15.30;99.90
25652;DHT22;13508;50.734;4.232;2023-10-08T03:58:18;15.10;99.90
25652;DHT22;13508;50.734;4.232;2023-10-08T04:01:32;15.00;99.90
25652;DHT22;13508;50.734;4.232;2023-10-08T04:04:36;14.90;99.90
25652;DHT22;13508;50.734;4.232;2023-10-08T04:07:56;14.80;99.90
25652;DHT22;13508;50.734;4.232;2023-10-08T04:11:02;14.70;99.90
25652;DHT22;13508;50.734;4.232;2023-10-08T04:14:11;14.70;99.90
25652;DHT22;13508;50.734;4.232;2023-10-08T04:17:18;14.70;99.90
25652;DHT22;13508;50.734;4.232;2023-10-08T04:20:25;14.70;99.90
25652;DHT22;13508;50.734;4.232;2023-10-08T04:23:36;14.80;99.90
25652;DHT22;13508;50.734;4.232;2023-10-08T04:26:40;14.70;99.90
25652;DHT22;13508;50.734;4.232;2023-10-08T04:29:44;14.60;99.90
25652;DHT22;13508;50.734;4.232;2023-10-08T04:32:52;14.60;99.90
25652;DHT22;13508;50.734;4.232;2023-10-08T04:35:59;14.60;99.90
25652;DHT22;13508;50.734;4.232;2023-10-08T04:39:05;14.70;99.90
25652;DHT22;13508;50.734;4.232;2023-10-08T04:42:15;14.90;99.90
25652;DHT22;13508;50.734;4.232;2023-10-08T04:45:21;15.00;99.90
25652;DHT22;13508;50.734;4.232;2023-10-08T04:48:29;14.90;99.90
25652;DHT22;13508;50.734;4.232;2023-10-08T04:51:37;14.90;99.90
25652;DHT22;13508;50.734;4.232;2023-10-08T04:54:47;14.80;99.90
25652;DHT22;13508;50.734;4.232;2023-10-08T04:57:55;14.60;99.90
25652;DHT22;13508;50.734;4.232;2023-10-08T05:01:00;14.50;99.90
25652;DHT22;13508;50.734;4.232;2023-10-08T05:04:20;14.70;99.90
25652;DHT22;13508;50.734;4.232;2023-10-08T05:07:52;14.70;99.90
25652;DHT22;13508;50.734;4.232;2023-10-08T05:10:57;14.70;99.90
25652;DHT22;13508;50.734;4.232;2023-10-08T05:14:24;14.70;99.90
25652;DHT22;13508;50.734;4.232;2023-10-08T05:17:39;14.70;99.90
25652;DHT22;13508;50.734;4.232;2023-10-08T05:20:54;14.70;99.90
25652;DHT22;13508;50.734;4.232;2023-10-08T05:24:18;14.70;99.90
25652;DHT22;13508;50.734;4.232;2023-10-08T05:27:31;14.90;99.90
25652;DHT22;13508;50.734;4.232;2023-10-08T05:31:07;14.80;99.90
25652;DHT22;13508;50.734;4.232;2023-10-08T05:34:19;14.70;99.90
25652;DHT22;13508;50.734;4.232;2023-10-08T05:37:39;14.80;99.90
25652;DHT22;13508;50.734;4.232;2023-10-08T05:40:45;14.80;99.90
25652;DHT22;13508;50.734;4.232;2023-10-08T05:44:05;14.80;99.90
25652;DHT22;13508;50.734;4.232;2023-10-08T05:47:17;14.80;99.90
25652;DHT22;13508;50.734;4.232;2023-10-08T05:50:35;14.80;99.90
25652;DHT22;13508;50.734;4.232;2023-10-08T05:53:58;14.70;99.90
25652;DHT22;13508;50.734;4.232;2023-10-08T05:57:08;14.70;99.90
25652;DHT22;13508;50.734;4.232;2023-10-08T06:00:15;14.70;99.90
25652;DHT22;13508;50.734;4.232;2023-10-08T06:03:18;14.80;99.90
25652;DHT22;13508;50.734;4.232;2023-10-08T06:06:51;14.90;99.90
25652;DHT22;13508;50.734;4.232;2023-10-08T06:10:16;15.00;99.90
25652;DHT22;13508;50.734;4.232;2023-10-08T06:13:34;15.00;99.90
25652;DHT22;13508;50.734;4.232;2023-10-08T06:16:47;14.90;99.90
25652;DHT22;13508;50.734;4.232;2023-10-08T06:20:05;14.90;99.90
25652;DHT22;13508;50.734;4.232;2023-10-08T06:23:14;15.00;99.90
25652;DHT22;13508;50.734;4.232;2023-10-08T06:26:21;15.00;99.90
25652;DHT22;13508;50.734;4.232;2023-10-08T06:29:27;15.20;99.90
25652;DHT22;13508;50.734;4.232;2023-10-08T06:32:30;15.00;99.90
25652;DHT22;13508;50.734;4.232;2023-10-08T06:35:33;15.20;99.90
25652;DHT22;13508;50.734;4.232;2023-10-08T06:38:44;15.30;99.90
25652;DHT22;13508;50.734;4.232;2023-10-08T06:41:53;15.50;99.90
25652;DHT22;13508;50.734;4.232;2023-10-08T06:44:57;15.70;99.90
25652;DHT22;13508;50.734;4.232;2023-10-08T06:48:01;15.60;99.90
25652;DHT22;13508;50.734;4.232;2023-10-08T06:51:12;15.40;99.90
25652;DHT22;13508;50.734;4.232;2023-10-08T06:54:19;15.40;99.90
25652;DHT22;13508;50.734;4.232;2023-10-08T06:57:25;15.50;99.90
25652;DHT22;13508;50.734;4.232;2023-10-08T07:00:29;15.70;99.90
25652;DHT22;13508;50.734;4.232;2023-10-08T07:03:51;15.80;99.90
25652;DHT22;13508;50.734;4.232;2023-10-08T07:06:55;16.00;99.90
25652;DHT22;13508;50.734;4.232;2023-10-08T07:09:59;16.20;99.90
25652;DHT22;13508;50.734;4.232;2023-10-08T07:13:05;16.10;99.90
25652;DHT22;13508;50.734;4.232;2023-10-08T07:16:11;16.10;99.90
25652;DHT22;13508;50.734;4.232;2023-10-08T07:19:14;15.90;99.90
25652;DHT22;13508;50.734;4.232;2023-10-08T07:22:23;15.80;99.90
25652;DHT22;13508;50.734;4.232;2023-10-08T07:25:26;16.10;99.90
25652;DHT22;13508;50.734;4.232;2023-10-08T07:28:40;16.30;99.90
25652;DHT22;13508;50.734;4.232;2023-10-08T07:31:46;16.50;99.90
25652;DHT22;13508;50.734;4.232;2023-10-08T07:34:53;16.30;99.90
25652;DHT22;13508;50.734;4.232;2023-10-08T07:38:03;16.10;99.90
25652;DHT22;13508;50.734;4.232;2023-10-08T07:41:13;16.30;99.90
25652;DHT22;13508;50.734;4.232;2023-10-08T07:44:17;16.10;99.90
25652;DHT22;13508;50.734;4.232;2023-10-08T07:47:24;16.10;99.90
25652;DHT22;13508;50.734;4.232;2023-10-08T07:50:30;16.20;99.90
25652;DHT22;13508;50.734;4.232;2023-10-08T07:53:35;16.60;99.90
25652;DHT22;13508;50.734;4.232;2023-10-08T07:56:42;16.70;99.90
25652;DHT22;13508;50.734;4.232;2023-10-08T07:59:46;16.60;99.90
25652;DHT22;13508;50.734;4.232;2023-10-08T08:02:52;16.70;99.90
25652;DHT22;13508;50.734;4.232;2023-10-08T08:05:57;16.70;99.90
25652;DHT22;13508;50.734;4.232;2023-10-08T08:09:04;17.00;99.90
25652;DHT22;13508;50.734;4.232;2023-10-08T08:12:22;17.20;99.90
25652;DHT22;13508;50.734;4.232;2023-10-08T08:15:28;17.00;99.90
25652;DHT22;13508;50.734;4.232;2023-10-08T08:18:33;17.10;99.90
25652;DHT22;13508;50.734;4.232;2023-10-08T08:21:38;17.50;99.90
25652;DHT22;13508;50.734;4.232;2023-10-08T08:24:52;17.70;99.90
25652;DHT22;13508;50.734;4.232;2023-10-08T08:27:59;18.00;99.90
25652;DHT22;13508;50.734;4.232;2023-10-08T08:31:06;17.80;99.90
25652;DHT22;13508;50.734;4.232;2023-10-08T08:34:19;17.60;99.90
25652;DHT22;13508;50.734;4.232;2023-10-08T08:37:26;17.50;99.90
25652;DHT22;13508;50.734;4.232;2023-10-08T08:40:35;17.50;99.90
25652;DHT22;13508;50.734;4.232;2023-10-08T08:43:38;17.60;99.90
25652;DHT22;13508;50.734;4.232;2023-10-08T08:46:50;17.70;99.90
25652;DHT22;13508;50.734;4.232;2023-10-08T08:49:53;17.90;99.90
25652;DHT22;13508;50.734;4.232;2023-10-08T08:52:59;17.90;99.90
25652;DHT22;13508;50.734;4.232;2023-10-08T08:56:07;18.20;99.90
25652;DHT22;13508;50.734;4.232;2023-10-08T08:59:12;18.10;99.90
25652;DHT22;13508;50.734;4.232;2023-10-08T09:02:18;18.40;99.90
25652;DHT22;13508;50.734;4.232;2023-10-08T09:05:24;18.70;99.90
25652;DHT22;13508;50.734;4.232;2023-10-08T09:08:37;18.70;99.90
25652;DHT22;13508;50.734;4.232;2023-10-08T09:11:45;19.00;99.90
25652;DHT22;13508;50.734;4.232;2023-10-08T09:14:48;19.70;99.90
25652;DHT22;13508;50.734;4.232;2023-10-08T09:17:56;20.30;99.90
25652;DHT22;13508;50.734;4.232;2023-10-08T09:21:20;20.20;99.90
25652;DHT22;13508;50.734;4.232;2023-10-08T09:24:29;21.00;99.90
25652;DHT22;13508;50.734;4.232;2023-10-08T09:27:32;21.80;99.90
25652;DHT22;13508;50.734;4.232;2023-10-08T09:30:37;22.50;99.90
25652;DHT22;13508;50.734;4.232;2023-10-08T09:33:43;23.00;99.90
25652;DHT22;13508;50.734;4.232;2023-10-08T09:37:00;23.70;99.90
25652;DHT22;13508;50.734;4.232;2023-10-08T09:40:06;24.60;99.90
25652;DHT22;13508;50.734;4.232;2023-10-08T09:43:18;24.20;99.90
25652;DHT22;13508;50.734;4.232;2023-10-08T09:46:29;24.80;99.90
25652;DHT22;13508;50.734;4.232;2023-10-08T09:49:38;25.40;99.90
25652;DHT22;13508;50.734;4.232;2023-10-08T09:53:07;26.60;99.90
25652;DHT22;13508;50.734;4.232;2023-10-08T09:56:20;26.50;99.90
25652;DHT22;13508;50.734;4.232;2023-10-08T09:59:23;25.30;99.90
25652;DHT22;13508;50.734;4.232;2023-10-08T10:02:28;24.20;99.90
25652;DHT22;13508;50.734;4.232;2023-10-08T10:05:37;23.30;99.90
25652;DHT22;13508;50.734;4.232;2023-10-08T10:08:47;23.40;99.90
25652;DHT22;13508;50.734;4.232;2023-10-08T10:11:55;23.00;99.90
25652;DHT22;13508;50.734;4.232;2023-10-08T10:14:58;23.40;99.90
25652;DHT22;13508;50.734;4.232;2023-10-08T10:21:25;22.70;99.90
25652;DHT22;13508;50.734;4.232;2023-10-08T10:24:35;23.60;99.90
25652;DHT22;13508;50.734;4.232;2023-10-08T10:27:42;24.00;99.90
25652;DHT22;13508;50.734;4.232;2023-10-08T10:30:51;23.90;99.90
25652;DHT22;13508;50.734;4.232;2023-10-08T10:33:54;24.20;99.90
25652;DHT22;13508;50.734;4.232;2023-10-08T10:36:59;24.80;99.90
25652;DHT22;13508;50.734;4.232;2023-10-08T10:40:06;24.00;99.90
25652;DHT22;13508;50.734;4.232;2023-10-08T10:43:15;25.00;99.90
25652;DHT22;13508;50.734;4.232;2023-10-08T10:46:23;25.30;99.90
25652;DHT22;13508;50.734;4.232;2023-10-08T10:49:35;25.20;99.90
25652;DHT22;13508;50.734;4.232;2023-10-08T10:52:40;25.00;99.90
25652;DHT22;13508;50.734;4.232;2023-10-08T10:56:13;26.10;99.90
25652;DHT22;13508;50.734;4.232;2023-10-08T10:59:27;24.20;99.90
25652;DHT22;13508;50.734;4.232;2023-10-08T11:02:31;24.20;99.90
25652;DHT22;13508;50.734;4.232;2023-10-08T11:05:50;24.00;99.90
25652;DHT22;13508;50.734;4.232;2023-10-08T11:08:55;24.50;99.90
25652;DHT22;13508;50.734;4.232;2023-10-08T11:11:59;24.60;99.90
25652;DHT22;13508;50.734;4.232;2023-10-08T11:15:05;25.50;99.90
25652;DHT22;13508;50.734;4.232;2023-10-08T11:18:10;25.00;99.90
25652;DHT22;13508;50.734;4.232;2023-10-08T11:21:16;25.10;99.90
25652;DHT22;13508;50.734;4.232;2023-10-08T11:24:28;25.00;99.90
25652;DHT22;13508;50.734;4.232;2023-10-08T11:27:36;25.00;99.90
25652;DHT22;13508;50.734;4.232;2023-10-08T11:30:41;26.20;99.90
25652;DHT22;13508;50.734;4.232;2023-10-08T11:33:46;26.50;99.90
25652;DHT22;13508;50.734;4.232;2023-10-08T11:37:02;26.70;99.90
25652;DHT22;13508;50.734;4.232;2023-10-08T11:40:10;27.70;99.90
25652;DHT22;13508;50.734;4.232;2023-10-08T11:43:30;28.00;99.90
25652;DHT22;13508;50.734;4.232;2023-10-08T11:46:36;28.40;99.90
25652;DHT22;13508;50.734;4.232;2023-10-08T11:49:43;27.90;99.90
25652;DHT22;13508;50.734;4.232;2023-10-08T11:52:50;28.30;99.90
25652;DHT22;13508;50.734;4.232;2023-10-08T11:55:53;28.60;99.90
25652;DHT22;13508;50.734;4.232;2023-10-08T11:59:01;27.50;99.90
25652;DHT22;13508;50.734;4.232;2023-10-08T12:02:08;28.30;99.90
25652;DHT22;13508;50.734;4.232;2023-10-08T12:05:23;28.30;99.90
25652;DHT22;13508;50.734;4.232;2023-10-08T12:08:27;27.10;99.90
25652;DHT22;13508;50.734;4.232;2023-10-08T12:11:30;27.10;99.90
25652;DHT22;13508;50.734;4.232;2023-10-08T12:14:37;26.60;99.90
25652;DHT22;13508;50.734;4.232;2023-10-08T12:17:41;26.30;99.90
25652;DHT22;13508;50.734;4.232;2023-10-08T12:20:44;26.10;99.90
25652;DHT22;13508;50.734;4.232;2023-10-08T12:23:49;25.90;99.90
25652;DHT22;13508;50.734;4.232;2023-10-08T12:26:57;26.50;99.90
25652;DHT22;13508;50.734;4.232;2023-10-08T12:30:01;26.70;99.90
25652;DHT22;13508;50.734;4.232;2023-10-08T12:33:13;26.80;99.90
25652;DHT22;13508;50.734;4.232;2023-10-08T12:36:22;26.40;99.90
25652;DHT22;13508;50.734;4.232;2023-10-08T12:39:29;27.10;99.90
25652;DHT22;13508;50.734;4.232;2023-10-08T12:42:33;26.90;99.90
25652;DHT22;13508;50.734;4.232;2023-10-08T12:45:39;27.70;99.90
25652;DHT22;13508;50.734;4.232;2023-10-08T12:48:51;27.80;99.90
25652;DHT22;13508;50.734;4.232;2023-10-08T12:52:10;26.50;99.90
25652;DHT22;13508;50.734;4.232;2023-10-08T12:55:14;25.80;99.90
25652;DHT22;13508;50.734;4.232;2023-10-08T12:58:23;25.50;99.90
25652;DHT22;13508;50.734;4.232;2023-10-08T13:01:36;26.00;99.90
25652;DHT22;13508;50.734;4.232;2023-10-08T13:04:43;26.50;99.90
25652;DHT22;13508;50.734;4.232;2023-10-08T13:07:51;26.30;99.90
25652;DHT22;13508;50.734;4.232;2023-10-08T13:10:58;26.40;99.90
25652;DHT22;13508;50.734;4.232;2023-10-08T13:14:04;26.20;99.90
25652;DHT22;13508;50.734;4.232;2023-10-08T13:17:08;25.70;99.90
25652;DHT22;13508;50.734;4.232;2023-10-08T13:20:13;25.60;99.90
25652;DHT22;13508;50.734;4.232;2023-10-08T13:23:20;25.70;99.90
25652;DHT22;13508;50.734;4.232;2023-10-08T13:26:26;25.50;99.90
25652;DHT22;13508;50.734;4.232;2023-10-08T13:29:35;25.60;99.90
25652;DHT22;13508;50.734;4.232;2023-10-08T13:32:41;25.20;99.90
25652;DHT22;13508;50.734;4.232;2023-10-08T13:35:49;25.20;99.90
25652;DHT22;13508;50.734;4.232;2023-10-08T13:38:55;25.50;99.90
25652;DHT22;13508;50.734;4.232;2023-10-08T13:41:59;25.20;99.90
25652;DHT22;13508;50.734;4.232;2023-10-08T13:45:06;24.90;99.90
25652;DHT22;13508;50.734;4.232;2023-10-08T13:48:12;25.10;99.90
25652;DHT22;13508;50.734;4.232;2023-10-08T13:51:21;25.20;99.90
25652;DHT22;13508;50.734;4.232;2023-10-08T13:54:28;25.00;99.90
25652;DHT22;13508;50.734;4.232;2023-10-08T13:57:32;24.70;99.90
25652;DHT22;13508;50.734;4.232;2023-10-08T14:00:35;24.50;99.90
25652;DHT22;13508;50.734;4.232;2023-10-08T14:03:40;24.80;99.90
25652;DHT22;13508;50.734;4.232;2023-10-08T14:06:47;24.60;99.90
25652;DHT22;13508;50.734;4.232;2023-10-08T14:09:57;24.50;99.90
25652;DHT22;13508;50.734;4.232;2023-10-08T14:13:01;24.30;99.90
25652;DHT22;13508;50.734;4.232;2023-10-08T14:16:05;24.40;99.90
25652;DHT22;13508;50.734;4.232;2023-10-08T14:19:11;24.40;99.90
25652;DHT22;13508;50.734;4.232;2023-10-08T14:22:18;24.40;99.90
25652;DHT22;13508;50.734;4.232;2023-10-08T14:25:30;24.60;99.90
25652;DHT22;13508;50.734;4.232;2023-10-08T14:28:36;24.60;99.90
25652;DHT22;13508;50.734;4.232;2023-10-08T14:31:43;24.50;99.90
25652;DHT22;13508;50.734;4.232;2023-10-08T14:34:52;24.70;99.90
25652;DHT22;13508;50.734;4.232;2023-10-08T14:37:55;24.70;99.90
25652;DHT22;13508;50.734;4.232;2023-10-08T14:41:19;24.50;99.90
25652;DHT22;13508;50.734;4.232;2023-10-08T14:44:44;24.60;99.90
25652;DHT22;13508;50.734;4.232;2023-10-08T14:47:49;24.40;99.90
25652;DHT22;13508;50.734;4.232;2023-10-08T14:50:53;24.30;99.90
25652;DHT22;13508;50.734;4.232;2023-10-08T14:53:57;24.30;99.90
25652;DHT22;13508;50.734;4.232;2023-10-08T14:57:00;24.30;99.90
25652;DHT22;13508;50.734;4.232;2023-10-08T15:00:06;24.30;99.90
25652;DHT22;13508;50.734;4.232;2023-10-08T15:03:11;24.40;99.90
25652;DHT22;13508;50.734;4.232;2023-10-08T15:06:18;24.20;99.90
25652;DHT22;13508;50.734;4.232;2023-10-08T15:09:23;24.00;99.90
25652;DHT22;13508;50.734;4.232;2023-10-08T15:12:30;24.00;99.90
25652;DHT22;13508;50.734;4.232;2023-10-08T15:15:38;24.10;99.90
25652;DHT22;13508;50.734;4.232;2023-10-08T15:18:44;24.30;99.90
25652;DHT22;13508;50.734;4.232;2023-10-08T15:21:51;24.10;99.90
25652;DHT22;13508;50.734;4.232;2023-10-08T15:24:55;24.20;99.90
25652;DHT22;13508;50.734;4.232;2023-10-08T15:28:01;24.10;99.90
25652;DHT22;13508;50.734;4.232;2023-10-08T15:31:06;24.10;99.90
25652;DHT22;13508;50.734;4.232;2023-10-08T15:34:10;23.90;99.90
25652;DHT22;13508;50.734;4.232;2023-10-08T15:37:15;24.00;99.90
25652;DHT22;13508;50.734;4.232;2023-10-08T15:40:19;24.00;99.90
25652;DHT22;13508;50.734;4.232;2023-10-08T15:43:22;24.10;99.90
25652;DHT22;13508;50.734;4.232;2023-10-08T15:46:26;23.90;99.90
25652;DHT22;13508;50.734;4.232;2023-10-08T15:49:30;23.80;99.90
25652;DHT22;13508;50.734;4.232;2023-10-08T15:52:33;23.80;99.90
25652;DHT22;13508;50.734;4.232;2023-10-08T15:55:37;23.60;99.90
25652;DHT22;13508;50.734;4.232;2023-10-08T15:58:42;23.60;99.90
25652;DHT22;13508;50.734;4.232;2023-10-08T16:01:46;23.60;99.90
25652;DHT22;13508;50.734;4.232;2023-10-08T16:04:54;23.60;99.90
25652;DHT22;13508;50.734;4.232;2023-10-08T16:07:57;23.60;99.90
25652;DHT22;13508;50.734;4.232;2023-10-08T16:11:01;23.60;99.90
25652;DHT22;13508;50.734;4.232;2023-10-08T16:14:07;23.50;99.90
25652;DHT22;13508;50.734;4.232;2023-10-08T16:17:11;23.30;99.90
25652;DHT22;13508;50.734;4.232;2023-10-08T16:20:18;23.30;99.90
25652;DHT22;13508;50.734;4.232;2023-10-08T16:23:24;23.30;99.90
25652;DHT22;13508;50.734;4.232;2023-10-08T16:26:29;23.30;99.90
25652;DHT22;13508;50.734;4.232;2023-10-08T16:29:33;23.30;99.90
25652;DHT22;13508;50.734;4.232;2023-10-08T16:32:41;23.30;99.90
25652;DHT22;13508;50.734;4.232;2023-10-08T16:35:49;23.30;99.90
25652;DHT22;13508;50.734;4.232;2023-10-08T16:38:57;23.30;99.90
25652;DHT22;13508;50.734;4.232;2023-10-08T16:42:01;23.10;99.90
25652;DHT22;13508;50.734;4.232;2023-10-08T16:45:07;23.00;99.90
25652;DHT22;13508;50.734;4.232;2023-10-08T16:48:13;22.80;99.90
25652;DHT22;13508;50.734;4.232;2023-10-08T16:51:20;22.80;99.90
25652;DHT22;13508;50.734;4.232;2023-10-08T16:54:28;22.70;99.90
25652;DHT22;13508;50.734;4.232;2023-10-08T16:57:35;22.70;99.90
25652;DHT22;13508;50.734;4.232;2023-10-08T17:00:41;22.60;99.90
25652;DHT22;13508;50.734;4.232;2023-10-08T17:03:45;22.50;99.90
25652;DHT22;13508;50.734;4.232;2023-10-08T17:06:50;22.50;99.90
25652;DHT22;13508;50.734;4.232;2023-10-08T17:09:57;22.30;99.90
25652;DHT22;13508;50.734;4.232;2023-10-08T17:13:00;22.00;99.90
25652;DHT22;13508;50.734;4.232;2023-10-08T17:16:04;21.80;99.90
25652;DHT22;13508;50.734;4.232;2023-10-08T17:19:12;21.80;99.90
25652;DHT22;13508;50.734;4.232;2023-10-08T17:22:23;21.60;99.90
25652;DHT22;13508;50.734;4.232;2023-10-08T17:25:27;21.50;99.90
25652;DHT22;13508;50.734;4.232;2023-10-08T17:28:31;21.40;99.90
25652;DHT22;13508;50.734;4.232;2023-10-08T17:31:37;21.50;99.90
25652;DHT22;13508;50.734;4.232;2023-10-08T17:34:44;21.50;99.90
25652;DHT22;13508;50.734;4.232;2023-10-08T17:37:51;21.40;99.90
25652;DHT22;13508;50.734;4.232;2023-10-08T17:40:56;21.20;99.90
25652;DHT22;13508;50.734;4.232;2023-10-08T17:43:59;20.90;99.90
25652;DHT22;13508;50.734;4.232;2023-10-08T17:47:06;20.70;99.90
25652;DHT22;13508;50.734;4.232;2023-10-08T17:50:12;20.70;99.90
25652;DHT22;13508;50.734;4.232;2023-10-08T17:53:17;20.60;99.90
25652;DHT22;13508;50.734;4.232;2023-10-08T17:56:22;20.40;99.90
25652;DHT22;13508;50.734;4.232;2023-10-08T17:59:25;20.30;99.90
25652;DHT22;13508;50.734;4.232;2023-10-08T18:02:29;20.30;99.90
25652;DHT22;13508;50.734;4.232;2023-10-08T18:05:34;20.20;99.90
25652;DHT22;13508;50.734;4.232;2023-10-08T18:08:40;20.10;99.90
25652;DHT22;13508;50.734;4.232;2023-10-08T18:11:44;20.00;99.90
25652;DHT22;13508;50.734;4.232;2023-10-08T18:14:49;20.00;99.90
25652;DHT22;13508;50.734;4.232;2023-10-08T18:17:54;19.90;99.90
25652;DHT22;13508;50.734;4.232;2023-10-08T18:20:57;19.80;99.90
25652;DHT22;13508;50.734;4.232;2023-10-08T18:24:03;19.90;99.90
25652;DHT22;13508;50.734;4.232;2023-10-08T18:27:06;20.10;99.90
25652;DHT22;13508;50.734;4.232;2023-10-08T18:30:12;20.30;99.90
25652;DHT22;13508;50.734;4.232;2023-10-08T18:33:18;20.00;99.90
25652;DHT22;13508;50.734;4.232;2023-10-08T18:36:24;19.70;99.90
25652;DHT22;13508;50.734;4.232;2023-10-08T18:39:27;19.50;99.90
25652;DHT22;13508;50.734;4.232;2023-10-08T18:42:31;19.50;99.90
25652;DHT22;13508;50.734;4.232;2023-10-08T18:45:35;19.60;99.90
25652;DHT22;13508;50.734;4.232;2023-10-08T18:48:39;19.70;99.90
25652;DHT22;13508;50.734;4.232;2023-10-08T18:51:43;19.80;99.90
25652;DHT22;13508;50.734;4.232;2023-10-08T18:54:49;19.70;99.90
25652;DHT22;13508;50.734;4.232;2023-10-08T18:58:00;19.60;99.90
25652;DHT22;13508;50.734;4.232;2023-10-08T19:01:04;19.70;99.90
25652;DHT22;13508;50.734;4.232;2023-10-08T19:04:09;19.50;99.90
25652;DHT22;13508;50.734;4.232;2023-10-08T19:07:13;19.40;99.90
25652;DHT22;13508;50.734;4.232;2023-10-08T19:10:20;19.30;99.90
25652;DHT22;13508;50.734;4.232;2023-10-08T19:13:26;19.30;99.90
25652;DHT22;13508;50.734;4.232;2023-10-08T19:16:35;19.30;99.90
25652;DHT22;13508;50.734;4.232;2023-10-08T19:19:40;19.40;99.90
25652;DHT22;13508;50.734;4.232;2023-10-08T19:22:44;19.40;99.90
25652;DHT22;13508;50.734;4.232;2023-10-08T19:25:49;19.40;99.90
25652;DHT22;13508;50.734;4.232;2023-10-08T19:28:58;19.20;99.90
25652;DHT22;13508;50.734;4.232;2023-10-08T19:32:09;19.20;99.90
25652;DHT22;13508;50.734;4.232;2023-10-08T19:35:16;19.20;99.90
25652;DHT22;13508;50.734;4.232;2023-10-08T19:38:24;19.10;99.90
25652;DHT22;13508;50.734;4.232;2023-10-08T19:41:27;19.10;99.90
25652;DHT22;13508;50.734;4.232;2023-10-08T19:44:34;19.10;99.90
25652;DHT22;13508;50.734;4.232;2023-10-08T19:47:38;19.10;99.90